Time;durP1;ratioP1;P1;durP2;ratioP2;P2;SDS_P1;SDS_P2;PMS_P1;PMS_P2;Temp;Humidity;BMP_temperature;BMP_pressure;BME280_temperature;BME280_humidity;BME280_pressure;Samples;Min_cycle;Max_cycle;Signal;HPM_P1;HPM_P2
2022/05/02 00:00:55;;;;;;;11.03;5.73;;;;;;;17.94;39.91;102272.31;5030300;28;20899;-70
2022/05/02 00:03:21;;;;;;;12.73;6.33;;;;;;;18.01;39.81;102271.31;5029144;28;20025;-70
2022/05/02 00:05:47;;;;;;;10.23;6.10;;;;;;;18.21;39.72;102278.00;5023923;28;20028;-70
2022/05/02 00:08:13;;;;;;;11.87;6.20;;;;;;;18.29;39.54;102266.34;5011443;28;20018;-70
2022/05/02 00:10:38;;;;;;;13.67;5.60;;;;;;;18.17;40.05;102271.03;5012332;28;20499;-70
2022/05/02 00:13:06;;;;;;;9.60;5.90;;;;;;;17.81;40.35;102277.78;5027990;28;20025;-70
2022/05/02 00:15:32;;;;;;;9.33;5.70;;;;;;;17.93;40.38;102278.53;5018271;28;20103;-70
2022/05/02 00:17:58;;;;;;;11.30;6.50;;;;;;;17.93;40.24;102278.53;5030415;28;20041;-70
2022/05/02 00:20:32;;;;;;;10.80;6.57;;;;;;;17.80;40.27;102278.72;5030564;28;20025;-70
2022/05/02 00:22:59;;;;;;;9.00;5.57;;;;;;;17.93;40.16;102278.53;5013528;28;20034;-70
2022/05/02 00:25:26;;;;;;;11.37;6.70;;;;;;;17.64;41.07;102282.50;5030917;28;20157;-70
2022/05/02 00:27:51;;;;;;;13.20;6.83;;;;;;;17.66;40.66;102269.25;5022546;28;20014;-70
2022/05/02 00:30:17;;;;;;;13.37;7.00;;;;;;;17.90;40.65;102267.94;5030631;28;20036;-70
2022/05/02 00:32:44;;;;;;;8.87;5.97;;;;;;;18.12;40.10;102257.88;5028612;28;20025;-70
2022/05/02 00:35:10;;;;;;;10.20;6.17;;;;;;;17.63;41.13;102267.53;5029646;28;20036;-70
2022/05/02 00:37:37;;;;;;;11.60;6.57;;;;;;;17.76;40.81;102261.16;5030156;28;20037;-71
2022/05/02 00:40:03;;;;;;;12.43;7.03;;;;;;;18.06;40.20;102258.00;5030446;28;20076;-71
2022/05/02 00:42:28;;;;;;;10.83;6.50;;;;;;;18.05;40.33;102261.53;5028832;28;20026;-70
2022/05/02 00:44:54;;;;;;;13.27;6.10;;;;;;;18.12;40.25;102253.47;5031060;28;20025;-70
2022/05/02 00:47:20;;;;;;;9.77;6.40;;;;;;;17.42;41.34;102261.72;5028568;28;20104;-70
2022/05/02 00:49:48;;;;;;;15.23;6.83;;;;;;;17.87;40.04;102250.34;5011977;28;20030;-70
2022/05/02 00:52:14;;;;;;;9.47;5.87;;;;;;;17.79;40.58;102253.16;5016493;28;20507;-70
2022/05/02 00:54:41;;;;;;;11.90;6.47;;;;;;;17.85;40.38;102248.66;5028117;28;20025;-70
2022/05/02 00:57:07;;;;;;;11.93;6.43;;;;;;;17.69;40.76;102248.91;5020789;28;20038;-70
2022/05/02 00:59:37;;;;;;;10.27;6.43;;;;;;;17.77;40.45;102252.28;5012250;28;20025;-70
2022/05/02 01:02:03;;;;;;;10.33;6.47;;;;;;;17.83;40.32;102253.09;5025129;28;20426;-70
2022/05/02 01:04:32;;;;;;;11.23;5.90;;;;;;;17.98;40.03;102250.19;5029814;28;20407;-70
2022/05/02 01:07:11;;;;;;;16.23;6.73;;;;;;;17.93;40.14;102239.72;5008276;28;20063;-70
2022/05/02 01:09:41;;;;;;;9.17;6.33;;;;;;;17.76;40.71;102241.75;5016214;28;20025;-70
2022/05/02 01:12:14;;;;;;;10.37;6.37;;;;;;;17.61;41.29;102245.53;5010464;28;20044;-70
2022/05/02 01:14:40;;;;;;;14.30;7.15;;;;;;;17.86;40.21;102245.09;5009492;28;20548;-70
2022/05/02 01:17:06;;;;;;;13.20;6.80;;;;;;;17.99;39.89;102241.38;5016796;28;20087;-70
2022/05/02 01:19:32;;;;;;;12.87;7.27;;;;;;;17.86;39.96;102242.44;5031139;28;20033;-70
2022/05/02 01:21:58;;;;;;;13.43;6.60;;;;;;;17.34;41.20;102239.81;5025213;28;20040;-70
2022/05/02 01:24:38;;;;;;;11.40;6.27;;;;;;;16.90;42.91;102251.94;5010929;28;20076;-70
2022/05/02 01:27:04;;;;;;;10.37;6.13;;;;;;;17.49;41.26;102240.44;5021586;28;20144;-70
2022/05/02 01:29:32;;;;;;;12.40;6.90;;;;;;;17.48;41.38;102234.28;5022877;28;20436;-70
2022/05/02 01:31:58;;;;;;;11.90;6.50;;;;;;;17.54;41.05;102234.19;5030650;28;20033;-70
2022/05/02 01:34:23;;;;;;;11.40;6.57;;;;;;;17.28;41.49;102243.44;5029514;28;20111;-70
2022/05/02 01:36:49;;;;;;;10.93;6.73;;;;;;;17.52;41.47;102240.41;5026240;28;20570;-70
2022/05/02 01:39:14;;;;;;;9.87;5.50;;;;;;;17.27;41.05;102240.81;5027400;28;20405;-70
2022/05/02 01:41:40;;;;;;;11.23;6.80;;;;;;;17.28;41.78;102242.53;5009139;28;20390;-70
2022/05/02 01:44:05;;;;;;;12.33;6.87;;;;;;;17.37;41.13;102236.25;5012652;28;20108;-70
2022/05/02 01:46:31;;;;;;;11.30;6.93;;;;;;;17.63;41.00;102228.75;5027737;28;20029;-70
2022/05/02 01:48:57;;;;;;;10.07;6.00;;;;;;;17.66;40.81;102232.25;5010971;28;20034;-70
2022/05/02 01:51:23;;;;;;;11.77;7.63;;;;;;;17.41;41.63;102230.88;5009475;28;20030;-70
2022/05/02 01:53:48;;;;;;;8.67;5.80;;;;;;;17.52;40.95;102224.56;5009117;28;20332;-70
2022/05/02 01:56:14;;;;;;;14.60;7.33;;;;;;;17.69;40.63;102217.19;5010817;28;20037;-70
2022/05/02 01:58:39;;;;;;;10.50;6.80;;;;;;;17.41;41.46;102228.25;5012813;28;20092;-70
2022/05/02 02:01:04;;;;;;;11.37;6.40;;;;;;;17.48;41.06;102222.88;5009494;28;20113;-70
2022/05/02 02:03:30;;;;;;;11.67;7.10;;;;;;;17.52;41.11;102224.56;5009018;28;20475;-70
2022/05/02 02:05:58;;;;;;;10.47;6.67;;;;;;;17.56;40.94;102220.97;5008664;28;20100;-71
2022/05/02 02:08:25;;;;;;;12.50;6.93;;;;;;;17.30;41.64;102225.78;5016383;28;20036;-71
2022/05/02 02:10:56;;;;;;;11.83;6.47;;;;;;;17.34;41.47;102215.13;5027185;28;20025;-70
2022/05/02 02:13:21;;;;;;;11.30;6.67;;;;;;;17.23;42.05;102228.56;5015984;28;20506;-70
2022/05/02 02:15:47;;;;;;;10.77;6.93;;;;;;;17.04;41.81;102217.38;5008935;28;20033;-71
2022/05/02 02:18:13;;;;;;;11.40;6.50;;;;;;;17.12;42.29;102224.28;5009298;28;20481;-70
2022/05/02 02:20:42;;;;;;;8.93;6.23;;;;;;;16.90;42.57;102214.97;5019246;28;20128;-71
2022/05/02 02:23:07;;;;;;;11.67;7.10;;;;;;;16.31;43.39;102215.69;5012180;28;20490;-70
2022/05/02 02:25:33;;;;;;;13.20;7.37;;;;;;;16.71;42.98;102215.16;5024433;28;20018;-70
2022/05/02 02:28:01;;;;;;;12.53;6.67;;;;;;;16.77;42.92;102209.81;5015040;28;20075;-70
2022/05/02 02:30:27;;;;;;;12.30;7.53;;;;;;;17.15;41.98;102219.88;5028869;28;20025;-70
2022/05/02 02:32:53;;;;;;;12.90;7.17;;;;;;;17.13;41.95;102226.03;5027204;28;20018;-70
2022/05/02 02:35:20;;;;;;;13.17;7.83;;;;;;;17.04;41.97;102218.25;5030101;28;20163;-70
2022/05/02 02:37:47;;;;;;;13.03;6.97;;;;;;;17.02;41.61;102217.41;5026762;28;20108;-70
2022/05/02 02:40:12;;;;;;;12.87;7.00;;;;;;;17.08;41.85;102213.81;5023840;28;20137;-70
2022/05/02 02:42:38;;;;;;;14.20;7.57;;;;;;;16.21;44.07;102220.22;5015361;28;20129;-70
2022/05/02 02:45:04;;;;;;;10.83;6.40;;;;;;;16.96;41.86;102214.84;5029993;28;20100;-70
2022/05/02 02:47:29;;;;;;;10.53;6.93;;;;;;;17.28;41.61;102205.53;5010902;28;20018;-70
2022/05/02 02:49:55;;;;;;;13.90;7.17;;;;;;;17.04;41.50;102209.47;5013563;28;20286;-70
2022/05/02 02:52:20;;;;;;;12.53;7.20;;;;;;;17.29;41.67;102207.31;5013140;28;20020;-70
2022/05/02 02:54:45;;;;;;;12.33;7.77;;;;;;;16.82;42.29;102211.53;5027655;28;20049;-70
2022/05/02 02:57:11;;;;;;;10.40;6.73;;;;;;;17.31;41.32;102205.53;5030190;28;20041;-71
2022/05/02 02:59:36;;;;;;;14.77;7.57;;;;;;;16.88;42.16;102206.13;5026447;28;20033;-70
2022/05/02 03:02:02;;;;;;;14.30;7.53;;;;;;;16.95;41.72;102197.25;5026531;28;20093;-71
2022/05/02 03:07:12;;;;;;;13.53;6.70;;;;;;;16.99;41.62;102198.09;5030134;28;20033;-70
2022/05/02 03:09:37;;;;;;;13.13;7.10;;;;;;;16.85;42.17;102200.91;5027587;28;20481;-70
2022/05/02 03:12:03;;;;;;;10.57;7.13;;;;;;;17.14;41.00;102197.84;5026511;28;20037;-70
2022/05/02 03:14:29;;;;;;;13.37;6.87;;;;;;;17.21;40.99;102198.63;5024580;28;20025;-70
2022/05/02 03:16:54;;;;;;;11.47;6.50;;;;;;;17.12;41.17;102187.31;5017438;28;20071;-70
2022/05/02 03:19:20;;;;;;;12.97;7.67;;;;;;;16.78;41.57;102203.63;5028487;28;20014;-70
2022/05/02 03:21:45;;;;;;;15.63;7.43;;;;;;;16.85;41.59;102200.91;5028006;28;20032;-70
2022/05/02 03:24:11;;;;;;;12.30;7.20;;;;;;;17.01;41.32;102196.28;5026631;28;20029;-70
2022/05/02 03:26:36;;;;;;;11.50;7.17;;;;;;;16.85;41.25;102201.78;5030281;28;20044;-70
2022/05/02 03:29:02;;;;;;;11.93;7.57;;;;;;;16.68;41.70;102194.09;5031697;28;20512;-70
2022/05/02 03:31:27;;;;;;;12.33;7.60;;;;;;;16.70;41.23;102192.28;5026822;28;20033;-70
2022/05/02 03:33:52;;;;;;;12.60;7.60;;;;;;;16.70;42.07;102192.28;5030176;28;20112;-70
2022/05/02 03:36:17;;;;;;;16.10;8.00;;;;;;;16.22;42.75;102194.69;5025669;28;20073;-71
2022/05/02 03:38:43;;;;;;;12.70;7.17;;;;;;;16.45;42.34;102194.41;5013119;28;20026;-70
2022/05/02 03:41:09;;;;;;;12.77;7.77;;;;;;;16.39;42.56;102192.72;5011849;28;20079;-71
2022/05/02 03:43:35;;;;;;;14.30;8.07;;;;;;;16.16;42.92;102200.06;5020304;28;20162;-70
2022/05/02 03:46:01;;;;;;;14.63;7.67;;;;;;;15.96;43.27;102187.09;5029027;28;20120;-70
2022/05/02 03:48:29;;;;;;;13.30;8.60;;;;;;;16.40;42.33;102189.19;5013154;28;20101;-71
2022/05/02 03:50:54;;;;;;;13.27;7.73;;;;;;;16.52;42.45;102192.56;5011185;28;20539;-70
2022/05/02 03:53:20;;;;;;;13.87;8.20;;;;;;;16.30;42.05;102191.97;5017654;28;20021;-71
2022/05/02 03:55:46;;;;;;;12.90;7.53;;;;;;;16.53;42.20;102199.59;5030382;28;20021;-70
2022/05/02 03:58:12;;;;;;;12.43;7.57;;;;;;;16.26;42.21;102197.25;5026581;28;20088;-70
2022/05/02 04:00:38;;;;;;;14.40;9.33;;;;;;;16.02;42.77;102194.91;5012556;28;20053;-71
2022/05/02 04:03:03;;;;;;;14.13;8.07;;;;;;;15.98;43.26;102202.00;5014945;28;20104;-70
2022/05/02 04:05:28;;;;;;;16.07;9.17;;;;;;;15.71;43.59;102193.44;5030436;28;20036;-71
2022/05/02 04:07:54;;;;;;;14.87;9.03;;;;;;;15.43;44.39;102198.97;5030286;28;20370;-71
2022/05/02 04:10:19;;;;;;;14.40;7.07;;;;;;;15.58;43.69;102197.09;5033050;28;20025;-70
2022/05/02 04:12:45;;;;;;;12.47;7.13;;;;;;;15.50;43.50;102191.03;5020928;28;20032;-70
2022/05/02 04:15:10;;;;;;;10.13;6.10;;;;;;;15.48;43.43;102195.44;5032146;28;20422;-70
2022/05/02 04:17:37;;;;;;;10.27;6.40;;;;;;;15.62;43.11;102193.56;5029784;28;20032;-70
2022/05/02 04:20:04;;;;;;;9.87;6.50;;;;;;;15.54;43.79;102198.03;5031430;28;20037;-70
2022/05/02 04:22:29;;;;;;;10.63;6.43;;;;;;;15.77;43.00;102198.66;5032196;28;20025;-70
2022/05/02 04:24:55;;;;;;;10.27;6.30;;;;;;;15.88;42.14;102206.50;5031186;28;20430;-70
2022/05/02 04:27:20;;;;;;;11.27;6.47;;;;;;;15.55;43.39;102207.66;5023090;28;20033;-70
2022/05/02 04:29:45;;;;;;;10.87;6.10;;;;;;;15.91;42.50;102205.59;5018358;28;20087;-70
2022/05/02 04:32:11;;;;;;;11.50;7.17;;;;;;;15.89;42.51;102207.38;5012140;28;20029;-71
2022/05/02 04:34:36;;;;;;;13.57;7.63;;;;;;;15.81;43.00;102209.22;5012042;28;20057;-70
2022/05/02 04:37:02;;;;;;;16.33;7.43;;;;;;;15.70;43.28;102214.53;5026621;28;20064;-70
2022/05/02 04:39:27;;;;;;;12.67;7.70;;;;;;;15.64;43.53;102212.84;5023494;28;20038;-72
2022/05/02 04:41:53;;;;;;;17.27;9.67;;;;;;;15.78;43.44;102210.97;5011671;28;20101;-70
2022/05/02 04:44:18;;;;;;;15.70;9.43;;;;;;;15.37;44.38;102214.84;5010857;28;20072;-70
2022/05/02 04:46:43;;;;;;;16.43;8.23;;;;;;;15.87;43.31;102209.16;5009918;28;20030;-70
2022/05/02 04:49:09;;;;;;;14.70;8.40;;;;;;;15.85;43.38;102211.78;5030524;28;20029;-70
2022/05/02 04:51:34;;;;;;;21.07;9.37;;;;;;;15.87;43.43;102204.75;5019544;28;20022;-70
2022/05/02 04:54:00;;;;;;;16.23;9.47;;;;;;;15.71;43.67;102206.63;5012941;28;20397;-70
2022/05/02 04:56:25;;;;;;;15.13;9.23;;;;;;;16.01;43.47;102201.09;5030447;28;20033;-70
2022/05/02 04:58:50;;;;;;;14.77;8.63;;;;;;;16.23;43.51;102205.22;5027829;28;20029;-69
2022/05/02 05:01:16;;;;;;;17.10;9.37;;;;;;;16.40;42.95;102214.69;5023404;28;20033;-70
2022/05/02 05:03:42;;;;;;;15.23;8.93;;;;;;;16.33;43.01;102216.53;5010089;28;20026;-70
2022/05/02 05:06:07;;;;;;;14.30;8.40;;;;;;;16.17;43.34;102212.31;5022391;28;20030;-70
2022/05/02 05:08:32;;;;;;;15.47;9.10;;;;;;;16.13;43.17;102210.63;5023809;28;20037;-70
2022/05/02 05:10:58;;;;;;;15.47;9.53;;;;;;;16.05;44.22;102214.22;5027244;28;20060;-70
2022/05/02 05:13:32;;;;;;;15.20;8.60;;;;;;;16.12;43.95;102212.41;5030065;28;20129;-70
2022/05/02 05:16:22;;;;;;;15.50;9.00;;;;;;;15.92;44.42;102215.22;5029238;28;20520;-70
2022/05/02 05:19:03;;;;;;;15.77;9.20;;;;;;;16.28;44.06;102215.75;5030963;28;20071;-71
2022/05/02 05:21:49;;;;;;;15.87;9.80;;;;;;;16.60;43.47;102214.44;5023683;28;20513;-70
2022/05/02 05:24:33;;;;;;;17.27;10.30;;;;;;;16.38;43.94;102220.00;5019649;28;20037;-70
2022/05/02 05:27:05;;;;;;;17.47;10.07;;;;;;;15.49;46.01;102215.63;5015982;28;20018;-70
2022/05/02 05:30:04;;;;;;;15.20;9.47;;;;;;;16.54;43.94;102214.50;5017814;28;20028;-70
2022/05/02 05:33:10;;;;;;;15.93;8.87;;;;;;;16.93;43.49;102214.91;5023989;28;20017;-69
2022/05/02 05:35:58;;;;;;;17.27;9.80;;;;;;;17.08;43.14;102209.38;5024183;28;20079;-70
2022/05/02 05:38:38;;;;;;;17.63;9.07;;;;;;;17.10;42.94;102215.53;5029888;28;20096;-70
2022/05/02 05:41:36;;;;;;;17.43;9.73;;;;;;;16.94;43.74;102216.66;5029354;28;20057;-70
2022/05/02 05:44:12;;;;;;;19.47;10.10;;;;;;;16.84;43.61;102215.00;5009573;28;20397;-70
2022/05/02 05:47:00;;;;;;;21.70;10.20;;;;;;;17.31;43.29;102208.16;5018586;28;20538;-70
2022/05/02 05:50:00;;;;;;;19.03;9.87;;;;;;;16.92;44.08;102218.44;5022533;28;20502;-70
2022/05/02 05:52:36;;;;;;;17.37;9.97;;;;;;;17.43;43.47;102221.16;5017019;28;20112;-70
2022/05/02 05:55:11;;;;;;;20.13;11.33;;;;;;;17.68;42.47;102212.81;5030190;28;20029;-71
2022/05/02 05:57:48;;;;;;;19.63;9.53;;;;;;;18.05;41.40;102216.56;5028613;28;20147;-70
2022/05/02 06:00:15;;;;;;;16.47;9.43;;;;;;;18.04;41.78;102214.81;5024488;28;20040;-70
2022/05/02 06:02:49;;;;;;;17.23;9.47;;;;;;;18.17;41.43;102212.81;5021459;28;20025;-70
2022/05/02 06:05:15;;;;;;;15.90;9.03;;;;;;;18.18;41.46;102219.84;5029110;28;20371;-70
2022/05/02 06:07:42;;;;;;;21.43;11.20;;;;;;;17.66;42.92;102214.59;5028875;28;20029;-70
2022/05/02 06:10:09;;;;;;;18.70;10.77;;;;;;;18.17;41.88;102215.47;5028220;28;20025;-70
2022/05/02 06:12:37;;;;;;;25.10;10.93;;;;;;;18.30;41.73;102216.97;5011639;28;20459;-70
2022/05/02 06:20:38;;;;;;;22.13;10.30;;;;;;;19.15;39.58;102210.69;5013010;28;20083;-69
2022/05/02 06:23:07;;;;;;;19.97;10.27;;;;;;;18.64;40.36;102218.88;5016926;28;20104;-70
2022/05/02 06:25:35;;;;;;;21.03;12.03;;;;;;;19.31;39.49;102210.28;5029014;28;20048;-70
2022/05/02 06:28:03;;;;;;;14.97;9.07;;;;;;;19.35;39.62;102217.25;5026769;28;20014;-70
2022/05/02 06:30:30;;;;;;;14.90;8.93;;;;;;;19.78;39.25;102210.84;5011573;28;20025;-70
2022/05/02 06:32:58;;;;;;;24.83;11.93;;;;;;;19.48;38.35;102213.41;5002355;28;20559;-70
2022/05/02 06:35:29;;;;;;;19.53;11.27;;;;;;;20.00;38.69;102210.28;5029195;28;20029;-71
2022/05/02 06:38:11;;;;;;;16.67;11.17;;;;;;;19.67;38.75;102215.56;5028578;28;20367;-71
2022/05/02 06:41:07;;;;;;;16.00;10.57;;;;;;;19.66;38.73;102217.34;5028003;28;20126;-70
2022/05/02 06:43:37;;;;;;;12.80;8.33;;;;;;;19.87;38.16;102214.22;5021227;28;20029;-70
2022/05/02 06:46:19;;;;;;;17.73;10.67;;;;;;;19.97;37.26;102213.03;4975325;28;20036;-69
2022/05/02 06:48:50;;;;;;;17.20;10.20;;;;;;;19.96;36.90;102217.47;5022225;28;20072;-70
2022/05/02 06:51:22;;;;;;;17.73;10.33;;;;;;;19.89;36.58;102207.06;5018234;28;20029;-70
2022/05/02 06:53:59;;;;;;;16.50;10.83;;;;;;;19.99;36.70;102209.41;5027816;28;20037;-70
2022/05/02 06:56:28;;;;;;;14.53;9.57;;;;;;;22.13;34.59;102208.81;5023560;28;20091;-70
2022/05/02 06:59:05;;;;;;;13.70;8.90;;;;;;;22.32;32.08;102213.44;5028059;28;20043;-71
2022/05/02 07:01:46;;;;;;;16.13;8.13;;;;;;;24.67;28.87;102208.91;5029401;28;20022;-69
2022/05/02 07:04:28;;;;;;;12.30;7.38;;;;;;;25.21;27.45;102207.13;5031662;28;20049;-69
2022/05/02 07:07:15;;;;;;;12.95;7.65;;;;;;;27.58;25.82;102205.78;5023966;28;20257;-70
2022/05/02 07:09:45;;;;;;;10.48;6.97;;;;;;;27.70;25.45;102208.72;5026786;28;20037;-70
2022/05/02 07:12:22;;;;;;;12.25;6.93;;;;;;;28.46;24.70;102210.22;5025892;28;20027;-70
2022/05/02 07:15:05;;;;;;;11.95;7.68;;;;;;;28.19;22.38;102203.00;5030753;28;20045;-70
2022/05/02 07:17:42;;;;;;;13.93;7.97;;;;;;;28.70;23.32;102209.63;5031787;28;20432;-70
2022/05/02 07:20:52;;;;;;;8.32;6.32;;;;;;;29.48;22.87;102208.91;5029725;28;20464;-70
2022/05/02 07:23:39;;;;;;;11.85;6.75;;;;;;;30.16;21.14;102206.88;5027341;28;20048;-70
2022/05/02 07:26:12;;;;;;;11.45;6.68;;;;;;;31.53;19.26;102203.03;5028552;28;20044;-70
2022/05/02 07:28:44;;;;;;;8.02;6.20;;;;;;;31.94;19.30;102205.22;5024723;28;20111;-70
2022/05/02 07:31:18;;;;;;;9.10;6.60;;;;;;;30.85;18.81;102200.97;5031962;28;20077;-70
2022/05/02 07:33:47;;;;;;;9.75;6.30;;;;;;;31.05;21.88;102213.00;5051768;28;20028;-70
2022/05/02 07:36:18;;;;;;;14.27;7.40;;;;;;;31.23;20.39;102207.13;5033166;28;20037;-70
2022/05/02 07:38:53;;;;;;;9.10;6.28;;;;;;;30.53;19.72;102209.63;5019599;28;20163;-71
2022/05/02 07:41:26;;;;;;;10.68;6.78;;;;;;;31.89;17.65;102199.31;5031989;28;20037;-72
2022/05/02 07:43:58;;;;;;;9.43;6.30;;;;;;;32.01;17.99;102205.56;5046565;28;20087;-71
2022/05/02 07:46:27;;;;;;;11.47;6.60;;;;;;;32.63;16.86;102204.16;5025205;28;20037;-71
2022/05/02 07:48:55;;;;;;;15.30;7.32;;;;;;;32.20;18.17;102202.28;5027127;28;20049;-70
2022/05/02 07:51:22;;;;;;;9.48;6.55;;;;;;;33.38;16.41;102206.97;5032824;28;20069;-71
2022/05/02 07:53:50;;;;;;;8.90;6.65;;;;;;;32.50;17.42;102208.88;5011295;28;20026;-71
2022/05/02 07:56:16;;;;;;;8.48;5.95;;;;;;;32.53;19.73;102214.00;4994980;28;20034;-71
2022/05/02 07:58:43;;;;;;;8.93;6.18;;;;;;;32.20;19.19;102202.28;5027143;28;20497;-71
2022/05/02 08:01:09;;;;;;;8.55;6.15;;;;;;;32.81;18.21;102207.22;5031002;28;20033;-71
2022/05/02 08:03:34;;;;;;;9.20;6.25;;;;;;;31.34;16.69;102209.00;5025181;28;20027;-71
2022/05/02 08:06:31;;;;;;;7.88;5.72;;;;;;;30.98;17.29;102213.53;5026199;28;20029;-71
2022/05/02 08:09:30;;;;;;;8.07;5.90;;;;;;;31.68;17.51;102206.41;5030499;28;20063;-71
2022/05/02 08:12:14;;;;;;;7.72;5.97;;;;;;;30.10;17.88;102218.09;5028725;28;20232;-70
2022/05/02 08:15:01;;;;;;;8.77;5.88;;;;;;;32.46;17.62;102212.81;5028115;28;20064;-70
2022/05/02 08:17:47;;;;;;;16.20;6.05;;;;;;;31.71;16.62;102206.16;5028198;28;20029;-71
2022/05/02 08:20:34;;;;;;;8.60;6.35;;;;;;;31.80;18.18;102210.84;5008834;28;20049;-70
2022/05/02 08:29:18;;;;;;;9.52;6.82;;;;;;;33.06;15.31;102209.72;5032376;28;20043;-70
2022/05/02 08:31:51;;;;;;;11.50;5.95;;;;;;;32.49;15.38;102217.97;5020752;28;20025;-70
2022/05/02 08:34:38;;;;;;;10.45;6.43;;;;;;;30.90;17.37;102220.38;5031081;28;20033;-70
2022/05/02 08:37:36;;;;;;;9.10;6.25;;;;;;;31.49;17.53;102215.94;5031812;28;20029;-70
2022/05/02 08:40:04;;;;;;;10.18;5.97;;;;;;;31.10;16.74;102224.28;5022505;28;20050;-70
2022/05/02 08:42:54;;;;;;;8.45;5.80;;;;;;;30.35;17.42;102217.19;5019441;28;20029;-70
2022/05/02 08:45:42;;;;;;;12.18;6.63;;;;;;;32.20;15.75;102210.38;5028723;28;20040;-70
2022/05/02 08:48:42;;;;;;;9.63;6.22;;;;;;;32.76;16.55;102214.00;5029255;28;20060;-71
2022/05/02 08:51:16;;;;;;;7.75;5.55;;;;;;;33.13;17.13;102210.91;5029946;28;20524;-70
2022/05/02 08:54:01;;;;;;;7.95;5.10;;;;;;;33.69;16.40;102208.84;5022587;28;20496;-70
2022/05/02 08:56:41;;;;;;;6.70;4.85;;;;;;;34.01;15.31;102210.63;5030030;28;20904;-70
2022/05/02 08:59:09;;;;;;;11.98;5.95;;;;;;;32.17;15.38;102207.09;5027444;28;20067;-70
2022/05/02 09:02:10;;;;;;;6.80;4.82;;;;;;;32.54;15.26;102206.78;5025653;28;20393;-70
2022/05/02 09:05:14;;;;;;;6.13;4.53;;;;;;;32.35;16.08;102210.13;5028015;28;20025;-70
2022/05/02 09:07:48;;;;;;;5.70;4.32;;;;;;;31.29;16.64;102210.22;5007699;28;20034;-70
2022/05/02 09:10:40;;;;;;;7.05;4.03;;;;;;;32.96;15.94;102212.31;5028469;28;20036;-70
2022/05/02 09:13:47;;;;;;;6.75;3.63;;;;;;;33.29;14.49;102208.63;5031379;28;20064;-70
2022/05/02 09:16:21;;;;;;;5.80;4.10;;;;;;;30.01;17.07;102208.00;5029637;28;20041;-70
2022/05/02 09:19:03;;;;;;;8.85;5.00;;;;;;;31.68;16.35;102196.47;5028927;28;20107;-69
2022/05/02 09:21:40;;;;;;;7.03;4.90;;;;;;;33.48;16.73;102193.47;5027638;28;20044;-70
2022/05/02 09:24:35;;;;;;;7.97;5.28;;;;;;;33.09;16.08;102198.59;5014908;28;20112;-71
2022/05/02 09:27:21;;;;;;;6.28;4.50;;;;;;;31.88;15.21;102197.59;5020245;28;20034;-71
2022/05/02 09:30:17;;;;;;;8.65;5.18;;;;;;;32.72;15.03;102197.16;5026371;28;20037;-70
2022/05/02 09:32:47;;;;;;;6.72;4.15;;;;;;;30.16;16.52;102182.63;5011889;28;20053;-69
2022/05/02 09:35:52;;;;;;;8.57;5.75;;;;;;;31.16;16.34;102185.19;5023677;28;20033;-70
2022/05/02 09:38:34;;;;;;;6.85;4.55;;;;;;;30.53;18.17;102192.56;5028200;28;20045;-70
2022/05/02 09:41:14;;;;;;;7.13;4.75;;;;;;;32.09;16.50;102180.63;5039293;28;20084;-70
2022/05/02 09:49:43;;;;;;;7.30;4.32;;;;;;;32.19;16.19;102189.75;5021431;28;20095;-70
2022/05/02 09:52:16;;;;;;;6.47;4.25;;;;;;;33.45;13.93;102174.78;5028671;28;20034;-71
2022/05/02 09:58:03;;;;;;;5.15;4.13;;;;;;;33.19;14.26;102180.56;5028149;28;20084;-72
2022/05/02 10:01:10;;;;;;;5.13;3.92;;;;;;;33.53;14.85;102174.13;5028812;28;20116;-73
2022/05/02 10:03:51;;;;;;;5.18;3.72;;;;;;;34.01;14.11;102170.78;5045354;28;20017;-73
2022/05/02 10:06:34;;;;;;;6.18;4.68;;;;;;;32.24;15.15;102175.84;5030910;28;20026;-72
2022/05/02 10:09:00;;;;;;;;;;;;;;;33.00;15.99;102175.00;5028733;28;20448;-72
2022/05/02 10:11:35;;;;;;;5.68;3.50;;;;;;;32.06;15.55;102175.47;5022684;28;19913;-73
2022/05/02 10:14:19;;;;;;;5.00;3.83;;;;;;;31.29;15.51;102185.06;5018256;28;20373;-72
2022/05/02 10:16:54;;;;;;;5.63;3.70;;;;;;;33.56;15.40;102166.56;5029234;28;20141;-72
2022/05/02 10:19:31;;;;;;;8.15;4.53;;;;;;;33.26;15.08;102178.22;5011175;28;20124;-72
2022/05/02 10:22:11;;;;;;;7.88;4.00;;;;;;;30.07;15.71;102175.19;5038666;28;20032;-72
2022/05/02 10:24:57;;;;;;;6.20;4.00;;;;;;;30.38;16.23;102176.50;5027183;28;20140;-72
2022/05/02 10:27:34;;;;;;;7.15;4.13;;;;;;;31.79;16.02;102160.47;5022374;28;20393;-72
2022/05/02 10:30:06;;;;;;;5.45;4.40;;;;;;;31.24;15.79;102163.84;5028291;28;20088;-72
2022/05/02 10:32:42;;;;;;;6.93;4.35;;;;;;;33.20;14.79;102157.91;5025574;28;20233;-72
2022/05/02 10:35:14;;;;;;;6.03;4.40;;;;;;;32.65;15.64;102166.16;5031195;28;20047;-72
2022/05/02 10:37:42;;;;;;;7.32;4.82;;;;;;;32.21;15.95;102163.44;5032372;28;20033;-72
2022/05/02 10:40:15;;;;;;;7.75;4.95;;;;;;;32.72;16.05;102164.66;5026893;28;20072;-72
2022/05/02 10:42:51;;;;;;;4.97;4.40;;;;;;;33.77;14.79;102162.97;5030107;28;20041;-72
2022/05/02 10:45:16;;;;;;;6.40;4.03;;;;;;;31.68;15.59;102160.47;5032494;28;20417;-72
2022/05/02 10:47:51;;;;;;;5.68;4.13;;;;;;;32.90;15.04;102156.84;5031903;28;20021;-72
2022/05/02 10:50:19;;;;;;;6.32;4.00;;;;;;;32.40;14.18;102153.81;5031592;28;20031;-72
2022/05/02 10:53:03;;;;;;;5.00;3.95;;;;;;;33.71;14.40;102152.66;5030645;28;20037;-72
2022/05/02 10:55:37;;;;;;;4.30;3.70;;;;;;;33.54;14.80;102149.59;5032112;28;20026;-72
2022/05/02 10:58:09;;;;;;;4.45;3.72;;;;;;;33.10;14.22;102151.59;5015857;28;20033;-72
2022/05/02 11:00:56;;;;;;;5.32;4.10;;;;;;;30.57;16.27;102154.47;5016056;28;20045;-73
2022/05/02 11:03:37;;;;;;;5.45;4.22;;;;;;;32.96;16.87;102148.22;5022383;28;20029;-73
2022/05/02 11:06:03;;;;;;;5.50;4.25;;;;;;;29.81;17.85;102142.84;5032104;28;20029;-72
2022/05/02 11:08:29;;;;;;;8.48;3.75;;;;;;;31.77;16.40;102146.25;5033680;28;20044;-72
2022/05/02 11:11:02;;;;;;;4.82;3.60;;;;;;;33.18;15.82;102138.25;5032275;28;20064;-72
2022/05/02 11:14:05;;;;;;;6.38;4.47;;;;;;;29.77;18.32;102139.53;5026975;28;20033;-72
2022/05/02 11:16:41;;;;;;;7.07;4.30;;;;;;;30.12;18.52;102140.69;5014981;28;20088;-72
2022/05/02 11:22:28;;;;;;;6.97;4.10;;;;;;;30.65;16.75;102136.84;5025374;28;20047;-72
2022/05/02 11:25:18;;;;;;;6.43;3.90;;;;;;;32.24;15.73;102138.84;5030669;28;20025;-72
2022/05/02 11:28:05;;;;;;;6.13;4.00;;;;;;;32.05;16.25;102144.84;5047099;28;20507;-72
2022/05/02 11:30:41;;;;;;;5.85;4.22;;;;;;;32.58;16.33;102130.63;5032050;28;20057;-72
2022/05/02 11:33:22;;;;;;;7.38;3.63;;;;;;;32.24;15.91;102133.41;5014056;28;20099;-72
2022/05/02 11:35:49;;;;;;;6.53;3.92;;;;;;;32.07;15.77;102139.34;5029543;28;20041;-72
2022/05/02 11:38:18;;;;;;;6.82;4.25;;;;;;;31.59;15.75;102119.72;5033016;28;20034;-73
2022/05/02 11:40:50;;;;;;;6.00;3.50;;;;;;;34.01;15.04;102118.41;5031930;28;20096;-73
2022/05/02 11:43:20;;;;;;;5.00;3.88;;;;;;;30.42;16.55;102132.16;5031539;28;20057;-73
2022/05/02 11:46:22;;;;;;;7.18;4.40;;;;;;;28.74;18.48;102135.81;5031111;28;20477;-73
2022/05/02 11:48:54;;;;;;;6.07;3.47;;;;;;;29.11;17.72;102122.56;5026957;28;20397;-72
2022/05/02 11:51:38;;;;;;;5.10;3.80;;;;;;;30.88;16.34;102127.84;5039031;28;20036;-72
2022/05/02 11:54:12;;;;;;;5.30;3.78;;;;;;;31.12;16.92;102118.91;5028521;28;20029;-72
2022/05/02 11:56:53;;;;;;;5.25;4.72;;;;;;;32.50;16.89;102116.03;5045484;28;20071;-72
2022/05/02 11:59:22;;;;;;;9.02;4.07;;;;;;;31.25;17.24;102116.94;5029586;28;20485;-72
2022/05/02 12:01:56;;;;;;;6.00;3.55;;;;;;;29.99;17.49;102115.59;5031201;28;20531;-72
2022/05/02 12:04:27;;;;;;;6.90;3.65;;;;;;;30.18;17.61;102107.88;5029279;28;20425;-73
2022/05/02 12:07:08;;;;;;;5.53;4.00;;;;;;;31.18;16.74;102115.69;5029455;28;20385;-73
2022/05/02 12:09:34;;;;;;;5.80;3.55;;;;;;;29.24;18.29;102118.09;5030933;28;20025;-73
2022/05/02 12:12:04;;;;;;;3.80;3.10;;;;;;;28.77;18.02;102130.25;5031424;28;20030;-72